Time;durP1;ratioP1;P1;durP2;ratioP2;P2;SDS_P1;SDS_P2;PMS_P1;PMS_P2;Temp;Humidity;BMP_temperature;BMP_pressure;BME280_temperature;BME280_humidity;BME280_pressure;Samples;Min_cycle;Max_cycle;Signal;HPM_P1;HPM_P2
2022/03/03 00:00:05;;;;;;;20.87;13.07;;;;;;;;;;5072827;28;20813;-69
2022/03/03 00:02:32;;;;;;;23.37;13.37;;;;;;;;;;5072604;28;20558;-69
2022/03/03 00:04:59;;;;;;;30.80;12.73;;;;;;;;;;5072488;28;20462;-69
2022/03/03 00:07:26;;;;;;;26.17;13.70;;;;;;;;;;5075433;28;20472;-69
2022/03/03 00:09:55;;;;;;;24.40;14.20;;;;;;;;;;5076646;28;20451;-69
2022/03/03 00:12:22;;;;;;;22.07;13.50;;;;;;;;;;5076488;28;20443;-69
2022/03/03 00:14:49;;;;;;;22.17;13.30;;;;;;;;;;5076379;28;20972;-69
2022/03/03 00:17:16;;;;;;;23.97;13.27;;;;;;;;;;5076505;28;20841;-69
2022/03/03 00:19:44;;;;;;;22.63;13.27;;;;;;;;;;5076286;28;20458;-69
2022/03/03 00:22:12;;;;;;;32.33;14.17;;;;;;;;;;5076540;28;20923;-69
2022/03/03 00:24:39;;;;;;;28.20;13.80;;;;;;;;;;5076361;28;20460;-69
2022/03/03 00:27:07;;;;;;;25.30;12.67;;;;;;;;;;5076525;28;20479;-69
2022/03/03 00:29:34;;;;;;;26.50;13.43;;;;;;;;;;5076591;28;20436;-69
2022/03/03 00:32:02;;;;;;;24.30;12.47;;;;;;;;;;5076412;28;20447;-69
2022/03/03 00:34:29;;;;;;;25.93;14.33;;;;;;;;;;5076141;28;20436;-69
2022/03/03 00:36:56;;;;;;;28.63;13.67;;;;;;;;;;5076317;28;20979;-69
2022/03/03 00:39:23;;;;;;;28.27;15.70;;;;;;;;;;5076369;28;20434;-69
2022/03/03 00:41:50;;;;;;;23.10;13.13;;;;;;;;;;5076319;28;20460;-69
2022/03/03 00:44:19;;;;;;;25.10;12.60;;;;;;;;;;5076226;28;20486;-69
2022/03/03 00:46:46;;;;;;;23.43;14.97;;;;;;;;;;5076290;28;20491;-69
2022/03/03 00:49:13;;;;;;;18.47;10.43;;;;;;;;;;5075765;28;20464;-69
2022/03/03 00:51:40;;;;;;;20.97;11.03;;;;;;;;;;5076258;28;20451;-69
2022/03/03 00:54:07;;;;;;;24.23;14.13;;;;;;;;;;5075819;28;20447;-69
2022/03/03 00:56:34;;;;;;;23.53;13.43;;;;;;;;;;5075733;28;20496;-69
2022/03/03 00:59:02;;;;;;;27.47;12.37;;;;;;;;;;5075989;28;20936;-69
2022/03/03 01:01:30;;;;;;;23.53;11.80;;;;;;;;;;5076014;28;20458;-69
2022/03/03 01:03:57;;;;;;;26.33;15.37;;;;;;;;;;5075692;28;21005;-69
2022/03/03 01:06:24;;;;;;;27.77;14.70;;;;;;;;;;5075774;28;20451;-71
2022/03/03 01:08:51;;;;;;;29.33;13.63;;;;;;;;;;5075517;28;20455;-69
2022/03/03 01:11:18;;;;;;;30.50;14.70;;;;;;;;;;5075546;28;20451;-69
2022/03/03 01:13:45;;;;;;;15.30;10.53;;;;;;;;;;5075656;28;20443;-69
2022/03/03 01:16:13;;;;;;;28.23;13.13;;;;;;;;;;5075348;28;20455;-69
2022/03/03 01:18:42;;;;;;;25.97;16.10;;;;;;;;;;5074205;28;20472;-69
2022/03/03 01:21:09;;;;;;;24.23;13.37;;;;;;;;;;5075652;28;20455;-69
2022/03/03 01:23:36;;;;;;;27.40;14.73;;;;;;;;;;5075491;28;20865;-69
2022/03/03 01:26:03;;;;;;;28.43;14.43;;;;;;;;;;5075173;28;20444;-69
2022/03/03 01:28:31;;;;;;;21.93;12.17;;;;;;;;;;5075363;28;20479;-69
2022/03/03 01:30:58;;;;;;;28.80;14.50;;;;;;;;;;5075379;28;20459;-69
2022/03/03 01:33:25;;;;;;;28.23;12.80;;;;;;;;;;5075028;28;20459;-69
2022/03/03 01:35:53;;;;;;;26.97;15.43;;;;;;;;;;5075348;28;20816;-69
2022/03/03 01:38:20;;;;;;;22.30;11.97;;;;;;;;;;5074939;28;20470;-69
2022/03/03 01:40:47;;;;;;;23.73;13.17;;;;;;;;;;5075068;28;20836;-69
2022/03/03 01:43:14;;;;;;;26.10;15.03;;;;;;;;;;5075110;28;20475;-69
2022/03/03 01:45:42;;;;;;;21.10;12.90;;;;;;;;;;5074866;28;20971;-69
2022/03/03 01:48:09;;;;;;;22.40;15.40;;;;;;;;;;5074664;28;20488;-69
2022/03/03 01:50:37;;;;;;;25.87;14.23;;;;;;;;;;5074689;28;20452;-69
2022/03/03 01:53:05;;;;;;;20.87;12.60;;;;;;;;;;5074912;28;20944;-69
2022/03/03 01:55:33;;;;;;;26.53;12.53;;;;;;;;;;5074517;28;20452;-69
2022/03/03 01:58:02;;;;;;;27.33;13.63;;;;;;;;;;5074688;28;20479;-69
2022/03/03 02:00:29;;;;;;;19.37;13.37;;;;;;;;;;5074684;28;20936;-69
2022/03/03 02:02:56;;;;;;;25.23;12.63;;;;;;;;;;5074669;28;20489;-69
2022/03/03 02:05:23;;;;;;;22.93;12.77;;;;;;;;;;5074642;28;20447;-69
2022/03/03 02:07:50;;;;;;;23.93;13.40;;;;;;;;;;5074366;28;20492;-69
2022/03/03 02:10:19;;;;;;;23.63;13.20;;;;;;;;;;5074200;28;20455;-69
2022/03/03 02:12:46;;;;;;;27.97;12.73;;;;;;;;;;5074439;28;20944;-69
2022/03/03 02:15:17;;;;;;;25.53;12.03;;;;;;;;;;5074397;28;20451;-69
2022/03/03 02:17:44;;;;;;;20.60;10.37;;;;;;;;;;5073935;28;20472;-69
2022/03/03 02:20:20;;;;;;;23.93;12.90;;;;;;;;;;5074329;28;20900;-71
2022/03/03 02:22:47;;;;;;;20.27;12.87;;;;;;;;;;5073930;28;20455;-69
2022/03/03 02:25:14;;;;;;;25.60;13.10;;;;;;;;;;5074325;28;20813;-69
2022/03/03 02:27:42;;;;;;;19.27;10.93;;;;;;;;;;5074013;28;20532;-69
2022/03/03 02:30:09;;;;;;;20.13;12.27;;;;;;;;;;5073464;28;20454;-69
2022/03/03 02:32:36;;;;;;;25.63;12.43;;;;;;;;;;5073831;28;20462;-69
2022/03/03 02:35:04;;;;;;;23.07;12.10;;;;;;;;;;5074081;28;20936;-69
2022/03/03 02:37:36;;;;;;;24.80;12.70;;;;;;;;;;5073970;28;20486;-69
2022/03/03 02:40:03;;;;;;;30.33;15.50;;;;;;;;;;5073839;28;20447;-69
2022/03/03 02:42:30;;;;;;;30.77;14.10;;;;;;;;;;5073664;28;20454;-69
2022/03/03 02:44:58;;;;;;;24.77;14.20;;;;;;;;;;5073993;28;20491;-69
2022/03/03 02:47:25;;;;;;;25.67;14.30;;;;;;;;;;5073567;28;20479;-69
2022/03/03 02:49:52;;;;;;;20.53;12.50;;;;;;;;;;5073548;28;20438;-69
2022/03/03 02:52:19;;;;;;;25.77;14.07;;;;;;;;;;5073796;28;20920;-69
2022/03/03 02:54:47;;;;;;;17.73;10.00;;;;;;;;;;5073773;28;20457;-69
2022/03/03 03:00:00;;;;;;;13.40;9.23;;;;;;;;;;5073456;28;20449;-69
2022/03/03 03:02:27;;;;;;;17.80;9.23;;;;;;;;;;5073668;28;20936;-69
2022/03/03 03:04:54;;;;;;;24.87;12.73;;;;;;;;;;5073605;28;20483;-69
2022/03/03 03:07:22;;;;;;;30.33;16.07;;;;;;;;;;5073542;28;20482;-69
2022/03/03 03:09:51;;;;;;;48.80;18.07;;;;;;;;;;5073660;28;20505;-69
2022/03/03 03:12:18;;;;;;;36.23;16.30;;;;;;;;;;5073538;28;20466;-69
2022/03/03 03:14:45;;;;;;;31.53;13.67;;;;;;;;;;5073279;28;20451;-69
2022/03/03 03:17:12;;;;;;;22.97;14.00;;;;;;;;;;5073496;28;20478;-69
2022/03/03 03:19:39;;;;;;;28.37;11.40;;;;;;;;;;5073363;28;20522;-69
2022/03/03 03:22:06;;;;;;;27.37;13.17;;;;;;;;;;5073431;28;20465;-69
2022/03/03 03:24:33;;;;;;;25.80;13.40;;;;;;;;;;5073359;28;20484;-69
2022/03/03 03:27:02;;;;;;;27.40;14.50;;;;;;;;;;5072965;28;20467;-69
2022/03/03 03:29:29;;;;;;;27.03;14.40;;;;;;;;;;5073377;28;20458;-69
2022/03/03 03:31:56;;;;;;;31.20;17.50;;;;;;;;;;5073099;28;20459;-69
2022/03/03 03:34:23;;;;;;;31.57;15.17;;;;;;;;;;5073367;28;20474;-69
2022/03/03 03:36:50;;;;;;;29.63;14.87;;;;;;;;;;5072939;28;20482;-69
2022/03/03 03:39:17;;;;;;;25.80;14.20;;;;;;;;;;5073245;28;20454;-69
2022/03/03 03:41:45;;;;;;;31.23;14.83;;;;;;;;;;5074577;28;20455;-69
2022/03/03 03:44:13;;;;;;;44.30;22.50;;;;;;;;;;5077434;28;20984;-69
2022/03/03 03:46:40;;;;;;;43.53;20.80;;;;;;;;;;5077139;28;20475;-69
2022/03/03 03:49:07;;;;;;;30.10;14.37;;;;;;;;;;5076830;28;20474;-69
2022/03/03 03:51:34;;;;;;;29.07;15.07;;;;;;;;;;5077481;28;20936;-69
2022/03/03 03:54:01;;;;;;;20.73;9.40;;;;;;;;;;5077136;28;20450;-71
2022/03/03 03:56:28;;;;;;;17.80;9.70;;;;;;;;;;5076789;28;20450;-69
2022/03/03 03:58:55;;;;;;;18.90;8.90;;;;;;;;;;5077130;28;20459;-71
2022/03/03 04:01:26;;;;;;;13.60;7.63;;;;;;;;;;5077065;28;20455;-69
2022/03/03 04:03:53;;;;;;;11.50;7.70;;;;;;;;;;5077029;28;20470;-71
2022/03/03 04:06:20;;;;;;;29.33;14.40;;;;;;;;;;5076571;28;20463;-69
2022/03/03 04:08:48;;;;;;;25.40;12.67;;;;;;;;;;5076964;28;20451;-69
2022/03/03 04:11:15;;;;;;;25.60;13.77;;;;;;;;;;5076875;28;20482;-69
2022/03/03 04:13:42;;;;;;;21.93;12.33;;;;;;;;;;5076867;28;20991;-69
2022/03/03 04:16:09;;;;;;;19.87;12.70;;;;;;;;;;5076824;28;20454;-69
2022/03/03 04:18:37;;;;;;;27.37;12.63;;;;;;;;;;5076697;28;20470;-69
2022/03/03 04:21:05;;;;;;;21.10;13.33;;;;;;;;;;5076617;28;20466;-69
2022/03/03 04:23:32;;;;;;;32.00;14.67;;;;;;;;;;5076569;28;20994;-69
2022/03/03 04:25:59;;;;;;;26.50;15.07;;;;;;;;;;5076599;28;20480;-69
2022/03/03 04:28:26;;;;;;;20.57;12.80;;;;;;;;;;5076512;28;20486;-69
2022/03/03 04:30:53;;;;;;;21.87;12.60;;;;;;;;;;5076164;28;20466;-69
2022/03/03 04:33:21;;;;;;;39.47;14.80;;;;;;;;;;5076451;28;20936;-69
2022/03/03 04:35:50;;;;;;;33.60;14.93;;;;;;;;;;5076344;28;20820;-69
2022/03/03 04:38:17;;;;;;;26.40;14.00;;;;;;;;;;5076037;28;20474;-69
2022/03/03 04:40:44;;;;;;;24.97;13.90;;;;;;;;;;5076387;28;20820;-69
2022/03/03 04:43:11;;;;;;;30.60;14.20;;;;;;;;;;5076379;28;20458;-69
2022/03/03 04:45:38;;;;;;;33.93;13.80;;;;;;;;;;5076209;28;20497;-69
2022/03/03 04:48:05;;;;;;;26.83;14.03;;;;;;;;;;5075894;28;20592;-69
2022/03/03 04:50:33;;;;;;;15.97;11.40;;;;;;;;;;5075890;28;20450;-69
2022/03/03 04:53:01;;;;;;;21.57;11.40;;;;;;;;;;5075888;28;20941;-69
2022/03/03 04:55:28;;;;;;;40.40;13.57;;;;;;;;;;5076070;28;20456;-69
2022/03/03 04:57:55;;;;;;;30.60;15.77;;;;;;;;;;5075620;28;20474;-69
2022/03/03 05:00:22;;;;;;;143.67;58.37;;;;;;;;;;5075677;28;20467;-69
2022/03/03 05:02:49;;;;;;;80.97;33.37;;;;;;;;;;5075856;28;20970;-69
2022/03/03 05:05:16;;;;;;;30.00;17.83;;;;;;;;;;5075800;28;20847;-69
2022/03/03 05:07:44;;;;;;;37.13;16.07;;;;;;;;;;5075852;28;20481;-69
2022/03/03 05:10:12;;;;;;;25.43;12.87;;;;;;;;;;5075468;28;20449;-69
2022/03/03 05:12:39;;;;;;;26.50;13.10;;;;;;;;;;5075508;28;20449;-69
2022/03/03 05:15:07;;;;;;;32.43;14.97;;;;;;;;;;5075760;28;20542;-71
2022/03/03 05:17:34;;;;;;;26.07;14.80;;;;;;;;;;5075615;28;20569;-69
2022/03/03 05:20:01;;;;;;;33.10;15.30;;;;;;;;;;5075269;28;20575;-69
2022/03/03 05:22:29;;;;;;;23.00;13.50;;;;;;;;;;5075674;28;20815;-69
2022/03/03 05:24:56;;;;;;;32.10;16.43;;;;;;;;;;5075456;28;20496;-69
2022/03/03 05:27:24;;;;;;;31.33;13.53;;;;;;;;;;5075530;28;20473;-69
2022/03/03 05:29:51;;;;;;;25.10;13.60;;;;;;;;;;5075385;28;20968;-69
2022/03/03 05:32:18;;;;;;;28.67;13.53;;;;;;;;;;5075192;28;20457;-69
2022/03/03 05:34:45;;;;;;;19.97;13.13;;;;;;;;;;5075152;28;20457;-71
2022/03/03 05:37:14;;;;;;;18.40;8.63;;;;;;;;;;5075285;28;20815;-69
2022/03/03 05:39:43;;;;;;;23.83;10.13;;;;;;;;;;5075023;28;20453;-69
2022/03/03 05:42:13;;;;;;;20.33;12.10;;;;;;;;;;5075140;28;20960;-71
2022/03/03 05:44:42;;;;;;;24.17;12.23;;;;;;;;;;5075094;28;20899;-69
2022/03/03 05:47:09;;;;;;;21.73;12.30;;;;;;;;;;5074898;28;21025;-69
2022/03/03 05:49:37;;;;;;;22.87;12.60;;;;;;;;;;5074770;28;20450;-69
2022/03/03 05:52:04;;;;;;;23.47;11.70;;;;;;;;;;5075032;28;20854;-69
2022/03/03 05:54:32;;;;;;;28.03;11.50;;;;;;;;;;5074921;28;20928;-69
2022/03/03 05:57:02;;;;;;;21.10;10.73;;;;;;;;;;5074797;28;20475;-69
2022/03/03 05:59:32;;;;;;;28.33;13.70;;;;;;;;;;5074957;28;20431;-69
2022/03/03 06:02:01;;;;;;;26.37;14.87;;;;;;;;;;5074845;28;20435;-69
2022/03/03 06:04:28;;;;;;;32.30;15.03;;;;;;;;;;5074212;28;20846;-69
2022/03/03 06:07:05;;;;;;;28.20;15.87;;;;;;;;;;5074580;28;20475;-69
2022/03/03 06:09:33;;;;;;;27.43;16.00;;;;;;;;;;5074620;28;20808;-69
2022/03/03 06:12:03;;;;;;;34.60;16.10;;;;;;;;;;5074645;28;20965;-69
2022/03/03 06:14:32;;;;;;;27.60;15.00;;;;;;;;;;5074508;28;20931;-71
2022/03/03 06:17:01;;;;;;;27.17;13.80;;;;;;;;;;5074148;28;20479;-70
2022/03/03 06:19:29;;;;;;;17.47;10.03;;;;;;;;;;5074474;28;20825;-71
2022/03/03 06:21:56;;;;;;;22.30;12.97;;;;;;;;;;5074323;28;20454;-69
2022/03/03 06:24:23;;;;;;;26.30;15.00;;;;;;;;;;5073964;28;20482;-69
2022/03/03 06:26:50;;;;;;;36.43;16.17;;;;;;;;;;5073962;28;20482;-69
2022/03/03 06:29:17;;;;;;;28.73;14.40;;;;;;;;;;5073968;28;20523;-69
2022/03/03 06:31:44;;;;;;;28.40;13.10;;;;;;;;;;5074279;28;20455;-69
2022/03/03 06:34:13;;;;;;;24.17;13.30;;;;;;;;;;5073988;28;20455;-69
2022/03/03 06:36:40;;;;;;;31.73;15.67;;;;;;;;;;5074040;28;20485;-69
2022/03/03 06:39:07;;;;;;;22.90;14.40;;;;;;;;;;5073789;28;20443;-69
2022/03/03 06:41:34;;;;;;;45.67;15.43;;;;;;;;;;5073723;28;20448;-69
2022/03/03 06:44:01;;;;;;;25.33;14.37;;;;;;;;;;5073927;28;20897;-69
2022/03/03 06:46:28;;;;;;;31.13;15.90;;;;;;;;;;5073926;28;20527;-69
2022/03/03 06:48:55;;;;;;;23.17;13.40;;;;;;;;;;5073556;28;20816;-69
2022/03/03 06:51:24;;;;;;;27.90;16.70;;;;;;;;;;5073699;28;20487;-69
2022/03/03 06:53:53;;;;;;;32.60;16.77;;;;;;;;;;5073517;28;20457;-70
2022/03/03 06:56:22;;;;;;;29.73;15.93;;;;;;;;;;5073443;28;20441;-69
2022/03/03 06:58:49;;;;;;;30.05;17.00;;;;;;;;;;5073590;28;21005;-70
2022/03/03 07:01:17;;;;;;;23.77;15.30;;;;;;;;;;5074117;28;20548;-70
2022/03/03 07:03:45;;;;;;;35.97;17.77;;;;;;;;;;5073714;28;20944;-70
2022/03/03 07:06:13;;;;;;;30.43;16.27;;;;;;;;;;5073601;28;20488;-70
2022/03/03 07:08:46;;;;;;;36.17;17.80;;;;;;;;;;5072184;28;20988;-70
2022/03/03 07:11:13;;;;;;;37.10;18.27;;;;;;;;;;5072418;28;20436;-70
2022/03/03 07:13:41;;;;;;;24.60;14.57;;;;;;;;;;5072341;28;20425;-70
2022/03/03 07:16:18;;;;;;;25.30;15.23;;;;;;;;;;5071846;28;20452;-70
2022/03/03 07:18:49;;;;;;;25.00;12.73;;;;;;;;;;5072346;28;20958;-70
2022/03/03 07:21:21;;;;;;;17.27;13.73;;;;;;;;;;5072012;28;20447;-69
2022/03/03 07:23:54;;;;;;;21.60;13.27;;;;;;;;;;5072240;28;20503;-69
2022/03/03 07:26:22;;;;;;;21.63;13.27;;;;;;;;;;5071885;28;20906;-69
2022/03/03 07:28:51;;;;;;;21.17;14.30;;;;;;;;;;5072197;28;20462;-69
2022/03/03 07:31:18;;;;;;;20.43;13.00;;;;;;;;;;5071982;28;20451;-69
2022/03/03 07:33:59;;;;;;;19.87;13.30;;;;;;;;;;5071806;28;20967;-69
2022/03/03 07:36:28;;;;;;;20.17;12.17;;;;;;;;;;5072386;28;20421;-70
2022/03/03 07:38:58;;;;;;;28.67;14.70;;;;;;;;;;5071829;28;20913;-69
2022/03/03 07:41:26;;;;;;;21.57;13.60;;;;;;;;;;5072064;28;20448;-69
2022/03/03 07:43:53;;;;;;;22.67;15.37;;;;;;;;;;5071924;28;20459;-69
2022/03/03 07:46:21;;;;;;;30.30;20.97;;;;;;;;;;5071781;28;20491;-69
2022/03/03 07:48:50;;;;;;;34.77;23.90;;;;;;;;;;5071575;28;20467;-69
2022/03/03 07:51:18;;;;;;;34.43;19.97;;;;;;;;;;5072049;28;20492;-69
2022/03/03 07:53:45;;;;;;;26.47;16.33;;;;;;;;;;5071888;28;20463;-70
2022/03/03 07:56:14;;;;;;;22.67;13.00;;;;;;;;;;5071749;28;20790;-70
2022/03/03 07:58:44;;;;;;;30.00;15.07;;;;;;;;;;5071508;28;20480;-69
2022/03/03 08:01:12;;;;;;;18.67;13.70;;;;;;;;;;5071927;28;20459;-70
2022/03/03 08:03:44;;;;;;;21.50;15.17;;;;;;;;;;5071816;28;21169;-70
2022/03/03 08:06:12;;;;;;;21.20;14.43;;;;;;;;;;5071438;28;20467;-70
2022/03/03 08:08:39;;;;;;;18.20;13.03;;;;;;;;;;5071557;28;20479;-70
2022/03/03 08:11:07;;;;;;;19.07;12.93;;;;;;;;;;5071744;28;20456;-70
2022/03/03 08:13:36;;;;;;;22.70;13.80;;;;;;;;;;5071549;28;20581;-70
2022/03/03 08:16:04;;;;;;;20.47;13.73;;;;;;;;;;5071745;28;20454;-70
2022/03/03 08:18:32;;;;;;;22.37;13.67;;;;;;;;;;5071628;28;20520;-70
2022/03/03 08:21:01;;;;;;;21.30;14.53;;;;;;;;;;5071100;28;20475;-70
2022/03/03 08:23:28;;;;;;;25.80;13.70;;;;;;;;;;5071835;28;20468;-70
2022/03/03 08:25:56;;;;;;;20.80;12.83;;;;;;;;;;5071632;28;20489;-70
2022/03/03 08:28:24;;;;;;;26.80;14.87;;;;;;;;;;5073451;28;20467;-70
2022/03/03 08:30:53;;;;;;;22.03;13.10;;;;;;;;;;5074457;28;20522;-70
2022/03/03 08:33:21;;;;;;;20.37;13.40;;;;;;;;;;5075102;28;20444;-70
2022/03/03 08:35:53;;;;;;;19.07;13.60;;;;;;;;;;5074768;28;20443;-70
2022/03/03 08:38:24;;;;;;;25.03;13.77;;;;;;;;;;5074739;28;20471;-70
2022/03/03 08:40:53;;;;;;;20.73;13.13;;;;;;;;;;5074763;28;20447;-70
2022/03/03 08:43:21;;;;;;;21.53;14.50;;;;;;;;;;5074781;28;20452;-70
2022/03/03 08:45:49;;;;;;;16.40;13.50;;;;;;;;;;5074890;28;20483;-70
2022/03/03 08:48:20;;;;;;;23.53;12.23;;;;;;;;;;5074731;28;20544;-70
2022/03/03 08:50:48;;;;;;;19.73;14.60;;;;;;;;;;5074767;28;20447;-70
2022/03/03 08:53:15;;;;;;;15.47;12.57;;;;;;;;;;5074651;28;20479;-70
2022/03/03 08:55:42;;;;;;;18.83;13.93;;;;;;;;;;5074781;28;20448;-70
2022/03/03 08:58:10;;;;;;;21.60;13.30;;;;;;;;;;5074743;28;20487;-70
2022/03/03 09:00:37;;;;;;;19.70;13.87;;;;;;;;;;5074741;28;20436;-70
2022/03/03 09:03:05;;;;;;;18.93;11.47;;;;;;;;;;5074690;28;20431;-70
2022/03/03 09:05:34;;;;;;;17.70;13.10;;;;;;;;;;5074272;28;20479;-70
2022/03/03 09:08:01;;;;;;;17.63;12.60;;;;;;;;;;5074254;28;20482;-70
2022/03/03 09:10:28;;;;;;;17.97;13.77;;;;;;;;;;5074645;28;20491;-70
2022/03/03 09:12:55;;;;;;;17.57;14.00;;;;;;;;;;5074121;28;20462;-70
2022/03/03 09:15:22;;;;;;;17.97;12.33;;;;;;;;;;5074451;28;20992;-70
2022/03/03 09:17:50;;;;;;;18.53;12.90;;;;;;;;;;5074567;28;20468;-70
2022/03/03 09:20:17;;;;;;;17.97;13.73;;;;;;;;;;5073961;28;20459;-70
2022/03/03 09:22:46;;;;;;;18.47;12.80;;;;;;;;;;5074425;28;20459;-70
2022/03/03 09:25:13;;;;;;;15.07;13.37;;;;;;;;;;5074396;28;20483;-70
2022/03/03 09:27:41;;;;;;;23.63;17.80;;;;;;;;;;5074330;28;20808;-70
2022/03/03 09:30:10;;;;;;;17.03;14.43;;;;;;;;;;5074411;28;20432;-70
2022/03/03 09:32:38;;;;;;;24.40;14.47;;;;;;;;;;5074503;28;20476;-70
2022/03/03 09:35:05;;;;;;;28.70;14.40;;;;;;;;;;5074214;28;20440;-70
2022/03/03 09:37:32;;;;;;;17.30;13.27;;;;;;;;;;5074064;28;20464;-70
2022/03/03 09:40:01;;;;;;;20.27;13.37;;;;;;;;;;5072489;28;20458;-70
2022/03/03 09:42:31;;;;;;;17.40;13.27;;;;;;;;;;5073908;28;20452;-70
2022/03/03 09:44:59;;;;;;;19.13;13.57;;;;;;;;;;5076085;28;20884;-70
2022/03/03 09:47:26;;;;;;;15.43;12.10;;;;;;;;;;5093938;28;20865;-70
2022/03/03 09:49:53;;;;;;;22.20;13.10;;;;;;;;;;5093839;28;20442;-71
2022/03/03 09:52:20;;;;;;;18.23;14.63;;;;;;;;;;5093758;28;20520;-71
2022/03/03 09:54:50;;;;;;;15.07;13.10;;;;;;;;;;5093125;28;20454;-71
2022/03/03 09:57:19;;;;;;;20.23;13.27;;;;;;;;;;5093733;28;20998;-70
2022/03/03 09:59:46;;;;;;;18.30;13.33;;;;;;;;;;5093770;28;20473;-70
2022/03/03 10:02:13;;;;;;;16.33;12.80;;;;;;;;;;5093429;28;20458;-70
2022/03/03 10:04:41;;;;;;;16.23;13.97;;;;;;;;;;5093775;28;20450;-70
2022/03/03 10:07:09;;;;;;;21.87;12.80;;;;;;;;;;5093413;28;20969;-70
2022/03/03 10:09:59;;;;;;;21.10;12.83;;;;;;;;;;5093604;28;20653;-70
2022/03/03 10:12:27;;;;;;;14.67;12.70;;;;;;;;;;5093170;28;20530;-70
2022/03/03 10:14:58;;;;;;;19.20;13.50;;;;;;;;;;5093453;28;20912;-70
2022/03/03 10:17:35;;;;;;;17.60;12.73;;;;;;;;;;5093420;28;20465;-70
2022/03/03 10:20:04;;;;;;;24.27;13.30;;;;;;;;;;5093465;28;20434;-71
2022/03/03 10:22:41;;;;;;;17.80;13.80;;;;;;;;;;5093683;28;20455;-70
2022/03/03 10:25:09;;;;;;;17.40;12.80;;;;;;;;;;5093307;28;20930;-70
2022/03/03 10:27:38;;;;;;;19.10;12.43;;;;;;;;;;5093199;28;20993;-70
2022/03/03 10:30:07;;;;;;;16.77;13.00;;;;;;;;;;5093227;28;20915;-70
2022/03/03 10:32:36;;;;;;;18.40;12.37;;;;;;;;;;5092906;28;20446;-70
2022/03/03 10:35:13;;;;;;;14.93;11.90;;;;;;;;;;5093196;28;20927;-70
2022/03/03 10:37:40;;;;;;;17.23;13.93;;;;;;;;;;5093150;28;20555;-70
2022/03/03 10:40:11;;;;;;;18.13;14.13;;;;;;;;;;5092778;28;20458;-70
2022/03/03 10:42:42;;;;;;;18.50;13.87;;;;;;;;;;5092942;28;20439;-70
2022/03/03 10:45:11;;;;;;;18.90;13.33;;;;;;;;;;5093164;28;20450;-70
2022/03/03 10:47:38;;;;;;;19.23;14.10;;;;;;;;;;5092571;28;20497;-70
2022/03/03 10:50:06;;;;;;;16.90;14.17;;;;;;;;;;5092581;28;20431;-70
2022/03/03 10:52:39;;;;;;;15.30;12.80;;;;;;;;;;5092876;28;20462;-71
2022/03/03 10:55:10;;;;;;;19.07;14.03;;;;;;;;;;5092473;28;20481;-71
2022/03/03 10:57:39;;;;;;;22.17;11.90;;;;;;;;;;5092251;28;20478;-70
2022/03/03 11:00:09;;;;;;;15.73;12.97;;;;;;;;;;5092845;28;20435;-70
2022/03/03 11:02:37;;;;;;;19.40;14.60;;;;;;;;;;5092633;28;20457;-70
2022/03/03 11:05:04;;;;;;;15.17;13.00;;;;;;;;;;5092618;28;20948;-70
2022/03/03 11:07:32;;;;;;;20.23;14.10;;;;;;;;;;5092159;28;20531;-70
2022/03/03 11:09:59;;;;;;;16.17;11.50;;;;;;;;;;5092589;28;20927;-71
2022/03/03 11:12:30;;;;;;;11.57;10.20;;;;;;;;;;5092190;28;20540;-70
2022/03/03 11:14:57;;;;;;;15.70;10.63;;;;;;;;;;5092176;28;20443;-71
2022/03/03 11:17:26;;;;;;;14.10;10.30;;;;;;;;;;5092390;28;20469;-71
2022/03/03 11:19:58;;;;;;;13.73;11.03;;;;;;;;;;5092435;28;20935;-71
2022/03/03 11:22:25;;;;;;;16.03;11.10;;;;;;;;;;5092194;28;20542;-70
2022/03/03 11:24:53;;;;;;;16.20;11.67;;;;;;;;;;5091915;28;20462;-70
2022/03/03 11:27:20;;;;;;;16.40;11.40;;;;;;;;;;5092166;28;20987;-71
2022/03/03 11:30:02;;;;;;;17.87;11.93;;;;;;;;;;5092646;28;20455;-70
2022/03/03 11:32:30;;;;;;;14.43;11.30;;;;;;;;;;5091866;28;20972;-71
2022/03/03 11:35:07;;;;;;;16.07;12.07;;;;;;;;;;5091596;28;20450;-70
2022/03/03 11:37:39;;;;;;;16.83;13.37;;;;;;;;;;5092461;28;20462;-70
2022/03/03 11:40:06;;;;;;;17.30;13.83;;;;;;;;;;5092887;28;20458;-71
2022/03/03 11:42:36;;;;;;;26.37;16.27;;;;;;;;;;5092795;28;20442;-71
2022/03/03 11:45:18;;;;;;;17.93;13.50;;;;;;;;;;5093029;28;20437;-70
2022/03/03 11:47:47;;;;;;;18.07;12.90;;;;;;;;;;5093233;28;20611;-70
2022/03/03 11:50:25;;;;;;;14.97;13.47;;;;;;;;;;5093393;28;20461;-71
2022/03/03 11:52:53;;;;;;;21.07;13.37;;;;;;;;;;5093671;28;20920;-71
2022/03/03 11:55:31;;;;;;;18.43;14.37;;;;;;;;;;5093309;28;20794;-71
2022/03/03 11:58:05;;;;;;;19.50;13.30;;;;;;;;;;5093295;28;20475;-71
2022/03/03 12:00:33;;;;;;;18.23;12.90;;;;;;;;;;5093343;28;20427;-70
2022/03/03 12:03:03;;;;;;;19.10;12.10;;;;;;;;;;5095094;28;20801;-71
2022/03/03 12:05:41;;;;;;;14.67;12.77;;;;;;;;;;5093697;28;20438;-71
2022/03/03 12:08:23;;;;;;;19.17;12.87;;;;;;;;;;5075991;28;20486;-71
2022/03/03 12:11:05;;;;;;;47.53;30.57;;;;;;;;;;5079691;28;20939;-71
2022/03/03 12:13:33;;;;;;;13.50;11.87;;;;;;;;;;5080092;28;20461;-71
2022/03/03 12:16:17;;;;;;;14.33;11.73;;;;;;;;;;5096757;28;20435;-71
2022/03/03 12:18:46;;;;;;;15.00;12.77;;;;;;;;;;5094986;28;20952;-71
2022/03/03 12:21:31;;;;;;;16.53;11.67;;;;;;;;;;5096834;28;20457;-71
2022/03/03 12:24:17;;;;;;;18.17;14.40;;;;;;;;;;5096529;28;20447;-71
2022/03/03 12:27:01;;;;;;;14.60;11.90;;;;;;;;;;5096351;28;20490;-71
2022/03/03 12:29:32;;;;;;;16.13;11.07;;;;;;;;;;5096603;28;20978;-71
2022/03/03 12:31:59;;;;;;;15.00;10.43;;;;;;;;;;5096411;28;20950;-71
2022/03/03 12:34:28;;;;;;;13.57;10.43;;;;;;;;;;5096205;28;20939;-71
2022/03/03 12:36:55;;;;;;;12.07;10.80;;;;;;;;;;5095816;28;20469;-71
2022/03/03 12:39:23;;;;;;;16.70;12.10;;;;;;;;;;5096226;28;20458;-71
2022/03/03 12:41:52;;;;;;;12.47;9.57;;;;;;;;;;5096281;28;20820;-71
2022/03/03 12:44:20;;;;;;;17.70;10.37;;;;;;;;;;5096019;28;20461;-71
2022/03/03 12:46:47;;;;;;;16.60;10.70;;;;;;;;;;5096139;28;20544;-71
2022/03/03 12:49:16;;;;;;;15.47;11.27;;;;;;;;;;5096202;28;20458;-71
2022/03/03 12:51:45;;;;;;;16.63;11.20;;;;;;;;;;5095823;28;20827;-71
2022/03/03 12:54:12;;;;;;;15.57;12.47;;;;;;;;;;5095772;28;20461;-71
2022/03/03 12:56:41;;;;;;;14.87;10.83;;;;;;;;;;5095913;28;20467;-71
2022/03/03 12:59:08;;;;;;;10.27;9.27;;;;;;;;;;5095943;28;20458;-71
2022/03/03 13:01:36;;;;;;;16.17;12.53;;;;;;;;;;5095657;28;21001;-71
2022/03/03 13:04:04;;;;;;;20.17;11.67;;;;;;;;;;5095585;28;20443;-71
2022/03/03 13:06:32;;;;;;;12.10;10.63;;;;;;;;;;5094813;28;20518;-71
2022/03/03 13:09:01;;;;;;;13.37;11.80;;;;;;;;;;5096101;28;20451;-71
2022/03/03 13:11:28;;;;;;;17.20;12.97;;;;;;;;;;5096116;28;20821;-71
2022/03/03 13:14:01;;;;;;;15.40;12.93;;;;;;;;;;5095885;28;20435;-71
2022/03/03 13:16:29;;;;;;;15.17;11.50;;;;;;;;;;5096128;28;20468;-70
2022/03/03 13:18:56;;;;;;;15.83;11.67;;;;;;;;;;5095617;28;20446;-70
2022/03/03 13:21:24;;;;;;;18.60;12.07;;;;;;;;;;5095817;28;20454;-70
2022/03/03 13:23:55;;;;;;;15.27;11.80;;;;;;;;;;5095830;28;20537;-70
2022/03/03 13:26:25;;;;;;;24.60;11.90;;;;;;;;;;5095360;28;20862;-70
2022/03/03 13:28:53;;;;;;;15.93;10.60;;;;;;;;;;5095715;28;20447;-70
2022/03/03 13:31:22;;;;;;;19.67;10.77;;;;;;;;;;5095553;28;20459;-70
2022/03/03 13:33:52;;;;;;;16.23;10.20;;;;;;;;;;5095728;28;20859;-70
2022/03/03 13:36:21;;;;;;;12.70;10.13;;;;;;;;;;5095545;28;20526;-70
2022/03/03 13:38:49;;;;;;;12.23;8.60;;;;;;;;;;5095120;28;20446;-70
2022/03/03 13:41:28;;;;;;;10.77;8.53;;;;;;;;;;5095164;28;20972;-70
2022/03/03 13:44:14;;;;;;;15.70;7.47;;;;;;;;;;5095533;28;20446;-70
2022/03/03 13:46:42;;;;;;;9.00;6.97;;;;;;;;;;5094201;28;20513;-71
2022/03/03 13:49:19;;;;;;;7.90;7.10;;;;;;;;;;5093409;28;20469;-71
2022/03/03 13:52:01;;;;;;;14.13;8.97;;;;;;;;;;5093938;28;20903;-71
2022/03/03 13:54:28;;;;;;;11.43;8.07;;;;;;;;;;5093485;28;20457;-70
2022/03/03 13:56:57;;;;;;;8.53;6.20;;;;;;;;;;5093516;28;20463;-70
2022/03/03 13:59:24;;;;;;;8.77;6.17;;;;;;;;;;5093599;28;20446;-70
2022/03/03 14:01:51;;;;;;;9.37;7.27;;;;;;;;;;5093420;28;20447;-70
2022/03/03 14:04:20;;;;;;;8.23;6.23;;;;;;;;;;5094175;28;20954;-71
2022/03/03 14:06:47;;;;;;;9.17;6.60;;;;;;;;;;5093242;28;20494;-70
2022/03/03 14:09:23;;;;;;;9.47;7.50;;;;;;;;;;5093420;28;20453;-70
2022/03/03 14:11:50;;;;;;;10.63;7.37;;;;;;;;;;5093615;28;20431;-70
2022/03/03 14:14:20;;;;;;;13.50;7.30;;;;;;;;;;5093675;28;20455;-71
2022/03/03 14:16:49;;;;;;;13.40;8.67;;;;;;;;;;5093797;28;20909;-71
2022/03/03 14:19:17;;;;;;;14.20;7.63;;;;;;;;;;5094751;28;20454;-71
2022/03/03 14:21:44;;;;;;;10.70;7.60;;;;;;;;;;5094647;28;20494;-70
2022/03/03 14:24:11;;;;;;;10.73;7.67;;;;;;;;;;5094298;28;20446;-70
2022/03/03 14:26:38;;;;;;;10.23;8.10;;;;;;;;;;5094132;28;20491;-70
2022/03/03 14:29:05;;;;;;;12.80;9.07;;;;;;;;;;5094682;28;20451;-69